sensor_id;sensor_type;location;lat;lon;timestamp;pressure;altitude;pressure_sealevel;temperature
72675;BMP280;60752;53.962;9.614;2023-05-14T00:09:50;58374.03;;;4.72
72675;BMP280;60752;53.962;9.614;2023-05-14T00:39:52;58360.25;;;4.72
72675;BMP280;60752;53.962;9.614;2023-05-14T01:09:58;58350.41;;;4.72
72675;BMP280;60752;53.962;9.614;2023-05-14T01:40:01;58372.06;;;4.72
72675;BMP280;60752;53.962;9.614;2023-05-14T02:10:05;58397.66;;;4.72
72675;BMP280;60752;53.962;9.614;2023-05-14T02:40:08;58374.03;;;4.72
72675;BMP280;60752;53.962;9.614;2023-05-14T03:10:10;58362.22;;;4.72
72675;BMP280;60752;53.962;9.614;2023-05-14T03:40:12;58397.66;;;4.72
72675;BMP280;60752;53.962;9.614;2023-05-14T04:10:14;58413.41;;;4.72
72675;BMP280;60752;53.962;9.614;2023-05-14T04:40:16;58423.25;;;4.72
72675;BMP280;60752;53.962;9.614;2023-05-14T05:10:18;58442.94;;;4.72
72675;BMP280;60752;53.962;9.614;2023-05-14T05:40:20;58444.91;;;4.72
72675;BMP280;60752;53.962;9.614;2023-05-14T06:10:21;58423.25;;;4.72
72675;BMP280;60752;53.962;9.614;2023-05-14T06:40:23;58439.00;;;4.72
72675;BMP280;60752;53.962;9.614;2023-05-14T07:10:25;58407.50;;;4.72
72675;BMP280;60752;53.962;9.614;2023-05-14T07:40:27;58391.75;;;4.72
72675;BMP280;60752;53.962;9.614;2023-05-14T08:10:30;58417.34;;;4.72
72675;BMP280;60752;53.962;9.614;2023-05-14T08:40:31;58397.66;;;4.72
72675;BMP280;60752;53.962;9.614;2023-05-14T09:10:33;58450.81;;;4.72
72675;BMP280;60752;53.962;9.614;2023-05-14T09:40:35;58413.41;;;4.72
72675;BMP280;60752;53.962;9.614;2023-05-14T10:10:37;58389.78;;;4.72
72675;BMP280;60752;53.962;9.614;2023-05-14T10:40:39;58425.22;;;4.72
72675;BMP280;60752;53.962;9.614;2023-05-14T11:10:41;58395.69;;;4.72
72675;BMP280;60752;53.962;9.614;2023-05-14T11:40:50;58397.66;;;4.72
72675;BMP280;60752;53.962;9.614;2023-05-14T12:10:53;58417.34;;;4.72
72675;BMP280;60752;53.962;9.614;2023-05-14T12:40:55;58417.34;;;4.72
72675;BMP280;60752;53.962;9.614;2023-05-14T13:10:56;58377.97;;;4.72
72675;BMP280;60752;53.962;9.614;2023-05-14T13:40:58;58403.56;;;4.72
72675;BMP280;60752;53.962;9.614;2023-05-14T14:11:00;58395.69;;;4.72
72675;BMP280;60752;53.962;9.614;2023-05-14T14:41:02;58405.53;;;4.72
72675;BMP280;60752;53.962;9.614;2023-05-14T15:11:04;58397.66;;;4.72
72675;BMP280;60752;53.962;9.614;2023-05-14T15:41:06;58419.31;;;4.72
72675;BMP280;60752;53.962;9.614;2023-05-14T16:11:07;58362.22;;;4.72
72675;BMP280;60752;53.962;9.614;2023-05-14T16:41:09;58360.25;;;4.72
72675;BMP280;60752;53.962;9.614;2023-05-14T17:11:11;58354.34;;;4.72
72675;BMP280;60752;53.962;9.614;2023-05-14T17:41:13;58364.19;;;4.72
72675;BMP280;60752;53.962;9.614;2023-05-14T18:11:15;58350.41;;;4.72
72675;BMP280;60752;53.962;9.614;2023-05-14T18:41:16;58362.22;;;4.72
72675;BMP280;60752;53.962;9.614;2023-05-14T19:11:18;58358.28;;;4.72
72675;BMP280;60752;53.962;9.614;2023-05-14T19:41:20;58356.31;;;4.72
72675;BMP280;60752;53.962;9.614;2023-05-14T20:11:22;58326.78;;;4.72
72675;BMP280;60752;53.962;9.614;2023-05-14T20:41:24;58344.50;;;4.72
72675;BMP280;60752;53.962;9.614;2023-05-14T21:11:25;58342.53;;;4.72
72675;BMP280;60752;53.962;9.614;2023-05-14T21:41:28;58360.25;;;4.72
72675;BMP280;60752;53.962;9.614;2023-05-14T22:11:30;58352.38;;;4.72
72675;BMP280;60752;53.962;9.614;2023-05-14T22:41:32;58399.63;;;4.72
72675;BMP280;60752;53.962;9.614;2023-05-14T23:11:34;58383.88;;;4.72
72675;BMP280;60752;53.962;9.614;2023-05-14T23:41:36;58354.34;;;4.72
